createdAt,value
2022-08-03T00:00:31.791Z,95571.97
2022-08-03T00:02:59.560Z,95580.34
2022-08-03T00:05:27.296Z,95573.41
2022-08-03T00:07:55.127Z,95568.09
2022-08-03T00:10:23.619Z,95573.59
2022-08-03T00:12:52.634Z,95570.13
2022-08-03T00:15:20.500Z,95571.38
2022-08-03T00:17:52.977Z,95570.13
2022-08-03T00:20:21.891Z,95564.84
2022-08-03T00:22:50.052Z,95565.84
2022-08-03T00:25:17.802Z,95568.47
2022-08-03T00:27:45.528Z,95566.38
2022-08-03T00:30:17.689Z,95560.44
2022-08-03T00:32:45.654Z,95569.00
2022-08-03T00:35:36.481Z,95559.00
2022-08-03T00:38:01.257Z,95559.38
2022-08-03T00:40:29.329Z,95570.81
2022-08-03T00:42:58.884Z,95567.91
2022-08-03T00:45:30.517Z,95569.94
2022-08-03T00:47:59.197Z,95569.53
2022-08-03T00:50:28.949Z,95564.63
2022-08-03T00:52:58.256Z,95561.13
2022-08-03T00:55:26.557Z,95562.34
2022-08-03T00:57:54.707Z,95561.69
2022-08-03T01:00:23.782Z,95554.97
2022-08-03T01:02:53.869Z,95564.75
2022-08-03T01:05:22.667Z,95561.50
2022-08-03T01:08:06.735Z,95563.66
2022-08-03T01:10:41.776Z,95557.72
2022-08-03T01:14:01.462Z,95552.63
2022-08-03T01:16:16.448Z,95555.28
2022-08-03T01:18:52.985Z,95556.50
2022-08-03T01:21:27.614Z,95556.72
2022-08-03T01:24:07.198Z,95550.19
2022-08-03T01:26:55.192Z,95552.41
2022-08-03T01:29:47.231Z,95543.81
2022-08-03T01:32:59.365Z,95548.16
2022-08-03T01:35:10.398Z,95539.81
2022-08-03T01:37:43.511Z,95533.28
2022-08-03T01:40:14.403Z,95541.41
2022-08-03T01:42:43.781Z,95540.16
2022-08-03T01:45:17.860Z,95545.81
2022-08-03T01:47:46.845Z,95540.69
2022-08-03T01:50:16.193Z,95539.38
2022-08-03T01:52:47.301Z,95539.75
2022-08-03T01:55:18.281Z,95536.44
2022-08-03T01:58:06.063Z,95541.69
2022-08-03T02:00:38.323Z,95543.94
2022-08-03T02:03:08.166Z,95540.31
2022-08-03T02:05:37.502Z,95530.97
2022-08-03T02:08:07.754Z,95539.75
2022-08-03T02:10:37.162Z,95534.00
2022-08-03T02:13:08.206Z,95534.81
2022-08-03T02:15:38.872Z,95539.91
2022-08-03T02:18:09.926Z,95544.22
2022-08-03T02:20:39.327Z,95544.59
2022-08-03T02:23:07.872Z,95538.25
2022-08-03T02:25:39.758Z,95538.06
2022-08-03T02:28:09.834Z,95537.28
2022-08-03T02:30:41.928Z,95537.28
2022-08-03T02:33:15.178Z,95536.28
2022-08-03T02:35:44.969Z,95540.94
2022-08-03T02:38:15.120Z,95543.41
2022-08-03T02:40:45.922Z,95546.44
2022-08-03T02:43:18.995Z,95546.41
2022-08-03T02:45:50.703Z,95544.50
2022-08-03T02:48:22.676Z,95536.50
2022-08-03T02:50:54.088Z,95543.81
2022-08-03T02:53:25.565Z,95545.22
2022-08-03T02:55:54.928Z,95544.59
2022-08-03T02:58:25.685Z,95540.94
2022-08-03T03:00:55.869Z,95533.13
2022-08-03T03:03:25.614Z,95537.47
2022-08-03T03:05:57.627Z,95536.06
2022-08-03T03:08:28.830Z,95532.78
2022-08-03T03:10:59.250Z,95530.94
2022-08-03T03:13:29.243Z,95535.81
2022-08-03T03:16:02.338Z,95535.81
2022-08-03T03:18:32.004Z,95534.91
2022-08-03T03:21:01.731Z,95534.47
2022-08-03T03:23:30.071Z,95529.44
2022-08-03T03:25:58.952Z,95530.41
2022-08-03T03:28:26.931Z,95539.09
2022-08-03T03:30:54.847Z,95538.50
2022-08-03T03:33:24.791Z,95528.28
2022-08-03T03:35:52.829Z,95530.09
2022-08-03T03:38:21.002Z,95531.66
2022-08-03T03:40:50.246Z,95533.94
2022-08-03T03:43:18.813Z,95530.56
2022-08-03T03:45:46.994Z,95539.09
2022-08-03T03:48:15.326Z,95537.88
2022-08-03T03:50:45.061Z,95541.84
2022-08-03T03:53:14.621Z,95541.94
2022-08-03T03:55:59.348Z,95543.41
2022-08-03T03:58:31.962Z,95545.44
2022-08-03T04:00:59.923Z,95541.28
2022-08-03T04:03:27.768Z,95547.53
2022-08-03T04:06:14.800Z,95538.31
2022-08-03T04:09:00.171Z,95543.03
2022-08-03T04:11:32.011Z,95545.31
2022-08-03T04:14:06.584Z,95544.34
2022-08-03T04:16:43.114Z,95540.50
2022-08-03T04:19:19.798Z,95549.47
2022-08-03T04:21:57.058Z,95551.50
2022-08-03T04:24:28.128Z,95545.91
2022-08-03T04:26:58.351Z,95549.81
2022-08-03T04:29:27.798Z,95554.63
2022-08-03T04:31:58.523Z,95551.41
2022-08-03T04:34:26.364Z,95548.75
2022-08-03T04:37:00.167Z,95545.81
2022-08-03T04:39:30.908Z,95549.69
2022-08-03T04:42:09.058Z,95546.66
2022-08-03T04:44:40.650Z,95549.34
2022-08-03T04:47:08.786Z,95551.78
2022-08-03T04:49:38.224Z,95558.66
2022-08-03T04:52:09.941Z,95562.44
2022-08-03T04:54:41.498Z,95562.97
2022-08-03T04:57:09.181Z,95565.28
2022-08-03T04:59:40.962Z,95566.59
2022-08-03T05:02:08.690Z,95562.28
2022-08-03T05:04:38.011Z,95562.88
2022-08-03T05:07:12.255Z,95559.91
2022-08-03T05:09:50.539Z,95564.56
2022-08-03T05:12:20.645Z,95561.84
2022-08-03T05:14:48.436Z,95554.41
2022-08-03T05:17:16.111Z,95568.00
2022-08-03T05:19:43.812Z,95569.75
2022-08-03T05:22:12.876Z,95569.41
2022-08-03T05:24:40.587Z,95567.31
2022-08-03T05:27:08.361Z,95570.28
2022-08-03T05:29:36.149Z,95579.75
2022-08-03T05:32:08.173Z,95585.78
2022-08-03T05:34:36.586Z,95586.06
2022-08-03T05:37:04.387Z,95576.53
2022-08-03T05:39:33.465Z,95580.00
2022-08-03T05:42:01.935Z,95582.88
2022-08-03T05:44:30.974Z,95593.63
2022-08-03T05:46:59.488Z,95586.88
2022-08-03T05:49:27.426Z,95587.88
2022-08-03T05:51:59.980Z,95586.78
2022-08-03T05:54:56.120Z,95576.72
2022-08-03T05:57:25.416Z,95567.59
2022-08-03T05:59:53.878Z,95574.22
2022-08-03T06:02:26.653Z,95575.28
2022-08-03T06:05:03.718Z,95577.22
2022-08-03T06:07:31.869Z,95583.22
2022-08-03T06:10:36.259Z,95583.00
2022-08-03T06:12:51.086Z,95576.88
2022-08-03T06:30:38.464Z,95590.13
2022-08-03T06:33:08.214Z,95593.09
2022-08-03T06:35:36.106Z,95596.16
2022-08-03T06:38:04.895Z,95600.63
2022-08-03T06:40:34.083Z,95591.47
2022-08-03T06:43:03.971Z,95596.19
2022-08-03T06:45:32.279Z,95594.97
2022-08-03T06:48:06.419Z,95601.72
2022-08-03T06:50:35.303Z,95596.25
2022-08-03T06:53:03.536Z,95593.63
2022-08-03T06:55:31.665Z,95599.34
2022-08-03T06:58:03.589Z,95601.66
2022-08-03T07:00:32.065Z,95602.88
2022-08-03T07:02:59.871Z,95601.66
2022-08-03T07:05:30.479Z,95593.31
2022-08-03T07:07:59.197Z,95597.19
2022-08-03T07:10:27.701Z,95595.81
2022-08-03T07:12:56.759Z,95597.06
2022-08-03T07:15:55.583Z,95584.66
2022-08-03T07:18:13.115Z,95591.84
2022-08-03T07:20:42.300Z,95587.19
2022-08-03T07:23:17.553Z,95587.78
2022-08-03T07:25:47.402Z,95579.47
2022-08-03T07:28:15.375Z,95577.44
2022-08-03T07:30:43.129Z,95580.50
2022-08-03T07:33:11.554Z,95582.75
2022-08-03T07:35:39.608Z,95577.03
2022-08-03T07:38:08.641Z,95584.22
2022-08-03T07:40:36.381Z,95579.16
2022-08-03T07:43:04.969Z,95579.59
2022-08-03T07:45:33.480Z,95574.66
2022-08-03T07:48:01.542Z,95572.47
2022-08-03T07:50:30.468Z,95574.09
2022-08-03T07:53:09.156Z,95567.78
2022-08-03T07:55:39.008Z,95572.13
2022-08-03T07:58:10.226Z,95563.97
2022-08-03T08:00:39.067Z,95569.69
2022-08-03T08:03:07.472Z,95564.59
2022-08-03T08:05:35.826Z,95572.75
2022-08-03T08:08:04.257Z,95558.81
2022-08-03T08:10:32.725Z,95569.06
2022-08-03T08:13:02.260Z,95574.00
2022-08-03T08:15:30.282Z,95564.41
2022-08-03T08:17:59.751Z,95563.19
2022-08-03T08:20:31.828Z,95561.34
2022-08-03T08:23:03.420Z,95563.19
2022-08-03T08:25:38.191Z,95561.34
2022-08-03T08:28:32.412Z,95560.09
2022-08-03T08:31:10.776Z,95565.84
2022-08-03T08:36:26.101Z,95557.47
2022-08-03T08:38:53.748Z,95558.31
2022-08-03T08:41:21.430Z,95556.66
2022-08-03T08:43:50.518Z,95555.44
2022-08-03T08:46:23.886Z,95553.41
2022-08-03T08:48:53.157Z,95552.56
2022-08-03T08:51:22.294Z,95555.44
2022-08-03T08:53:53.639Z,95550.47
2022-08-03T08:56:25.462Z,95550.09
2022-08-03T08:58:59.143Z,95545.19
2022-08-03T09:01:27.571Z,95548.88
2022-08-03T09:03:55.786Z,95548.28
2022-08-03T09:06:24.010Z,95549.06
2022-08-03T09:08:51.870Z,95548.78
2022-08-03T09:11:51.763Z,95547.63
2022-08-03T09:14:34.366Z,95545.22
2022-08-03T09:17:02.117Z,95542.66
2022-08-03T09:19:30.723Z,95544.00
2022-08-03T09:22:16.882Z,95548.97
2022-08-03T09:25:21.616Z,95542.78
2022-08-03T09:27:45.801Z,95541.38
2022-08-03T09:30:33.608Z,95543.91
2022-08-03T09:33:03.352Z,95539.91
2022-08-03T09:38:23.930Z,95547.66
2022-08-03T09:40:55.936Z,95537.22
2022-08-03T09:43:27.583Z,95543.94
2022-08-03T09:46:07.449Z,95538.44
2022-08-03T09:48:36.810Z,95544.03
2022-08-03T09:51:13.253Z,95537.16
2022-08-03T09:53:59.619Z,95540.72
2022-08-03T09:56:40.052Z,95536.56
2022-08-03T09:59:08.113Z,95544.38
2022-08-03T10:01:41.615Z,95546.31
2022-08-03T10:04:15.021Z,95545.47
2022-08-03T10:06:42.757Z,95541.06
2022-08-03T10:09:14.291Z,95535.28
2022-08-03T10:11:43.401Z,95542.56
2022-08-03T10:14:18.695Z,95531.88
2022-08-03T10:16:48.905Z,95540.09
2022-08-03T10:19:17.558Z,95536.41
2022-08-03T10:21:51.189Z,95536.41
2022-08-03T10:24:26.448Z,95526.47
2022-08-03T10:26:58.787Z,95533.75
2022-08-03T10:29:29.906Z,95528.47
2022-08-03T10:32:00.508Z,95520.69
2022-08-03T10:34:35.007Z,95518.16
2022-08-03T10:37:09.026Z,95513.31
2022-08-03T10:39:37.331Z,95517.69
2022-08-03T10:42:13.520Z,95515.56
2022-08-03T10:44:43.444Z,95510.31
2022-08-03T10:47:12.923Z,95509.56
2022-08-03T10:49:41.222Z,95513.97
2022-08-03T10:52:30.371Z,95510.47
2022-08-03T10:55:16.156Z,95508.56
2022-08-03T10:57:48.884Z,95500.72
2022-08-03T11:00:19.141Z,95500.34
2022-08-03T11:03:11.433Z,95493.47
2022-08-03T11:05:41.946Z,95491.06
2022-08-03T11:08:27.851Z,95484.88
2022-08-03T11:10:58.161Z,95493.81
2022-08-03T11:13:30.851Z,95494.97
2022-08-03T11:16:04.780Z,95494.19
2022-08-03T11:18:36.341Z,95492.00
2022-08-03T11:21:04.352Z,95493.94
2022-08-03T11:24:02.717Z,95488.56
2022-08-03T11:26:31.084Z,95489.94
2022-08-03T11:29:28.661Z,95485.34
2022-08-03T11:31:56.532Z,95478.34
2022-08-03T11:34:25.904Z,95485.63
2022-08-03T11:37:23.579Z,95485.59
2022-08-03T11:39:54.899Z,95487.78
2022-08-03T11:42:41.714Z,95487.25
2022-08-03T11:45:10.899Z,95485.91
2022-08-03T11:47:50.968Z,95491.56
2022-08-03T11:50:21.405Z,95489.94
2022-08-03T11:52:50.546Z,95482.91
2022-08-03T11:55:20.520Z,95489.66
2022-08-03T11:59:15.142Z,95487.78
2022-08-03T12:00:36.779Z,95483.47
2022-08-03T12:03:07.975Z,95486.41
2022-08-03T12:05:39.117Z,95468.63
2022-08-03T12:08:07.917Z,95476.19
2022-08-03T12:10:35.938Z,95471.84
2022-08-03T12:14:44.169Z,95467.81
2022-08-03T12:15:59.130Z,95468.88
2022-08-03T12:18:27.287Z,95466.22
2022-08-03T12:21:06.220Z,95464.53
2022-08-03T12:23:37.700Z,95464.00
2022-08-03T12:26:07.563Z,95458.09
2022-08-03T12:28:37.909Z,95444.84
2022-08-03T12:31:09.107Z,95450.50
2022-08-03T12:33:59.386Z,95452.38
2022-08-03T12:36:29.201Z,95451.59
2022-08-03T12:38:59.890Z,95461.06
2022-08-03T12:41:34.226Z,95455.38
2022-08-03T12:44:03.360Z,95449.44
2022-08-03T12:46:33.186Z,95457.50
2022-08-03T12:49:07.874Z,95455.09
2022-08-03T12:51:40.047Z,95456.75
2022-08-03T12:54:07.904Z,95447.56
2022-08-03T12:56:36.366Z,95443.22
2022-08-03T12:59:25.769Z,95436.72
2022-08-03T13:02:04.374Z,95437.56
2022-08-03T13:04:33.817Z,95438.34
2022-08-03T13:07:05.563Z,95438.69
2022-08-03T13:09:43.041Z,95435.91
2022-08-03T13:12:12.778Z,95438.63
2022-08-03T13:14:40.798Z,95432.53
2022-08-03T13:17:09.276Z,95437.00
2022-08-03T13:19:37.926Z,95442.88
2022-08-03T13:22:13.977Z,95442.41
2022-08-03T13:24:42.562Z,95432.78
2022-08-03T13:28:01.378Z,95433.81
2022-08-03T13:29:58.885Z,95426.69
2022-08-03T13:32:26.977Z,95430.88
2022-08-03T13:34:54.735Z,95433.69
2022-08-03T13:37:23.948Z,95426.63
2022-08-03T13:39:59.306Z,95426.81
2022-08-03T13:42:29.594Z,95430.22
2022-08-03T13:44:57.551Z,95423.19
2022-08-03T13:47:25.323Z,95426.84
2022-08-03T13:49:59.886Z,95417.44
2022-08-03T13:52:31.683Z,95417.59
2022-08-03T13:54:59.867Z,95411.63
2022-08-03T13:58:03.905Z,95411.19
2022-08-03T14:00:28.190Z,95407.88
2022-08-03T14:03:03.819Z,95411.56
2022-08-03T14:05:34.133Z,95413.66
2022-08-03T14:08:05.643Z,95409.34
2022-08-03T14:10:38.006Z,95407.88
2022-08-03T14:13:06.038Z,95396.28
2022-08-03T14:15:37.879Z,95392.38
2022-08-03T14:18:06.504Z,95392.66
2022-08-03T14:20:36.311Z,95387.78
2022-08-03T14:23:07.002Z,95398.59
2022-08-03T14:25:43.424Z,95392.03
2022-08-03T14:28:18.542Z,95400.34
2022-08-03T14:30:46.701Z,95389.28
2022-08-03T14:33:14.363Z,95390.91
2022-08-03T14:35:42.066Z,95392.06
2022-08-03T14:38:11.164Z,95390.25
2022-08-03T14:40:38.967Z,95388.59
2022-08-03T14:43:06.741Z,95387.69
2022-08-03T14:45:34.968Z,95395.63
2022-08-03T14:50:29.165Z,95390.00
2022-08-03T14:50:51.973Z,95383.88
2022-08-03T14:53:21.134Z,95384.41
2022-08-03T14:55:51.582Z,95383.34
2022-08-03T14:58:21.367Z,95380.38
2022-08-03T15:00:50.928Z,95370.72
2022-08-03T15:03:20.483Z,95379.34
2022-08-03T15:05:48.483Z,95371.75
2022-08-03T15:08:16.229Z,95366.84
2022-08-03T15:10:45.665Z,95364.41
2022-08-03T15:13:13.620Z,95358.97
2022-08-03T15:15:41.828Z,95358.16
2022-08-03T15:18:10.144Z,95358.16
2022-08-03T15:20:46.653Z,95355.72
2022-08-03T15:23:15.730Z,95362.97
2022-08-03T15:26:28.904Z,95365.69
2022-08-03T15:28:33.557Z,95363.00
2022-08-03T15:31:01.300Z,95360.56
2022-08-03T15:33:29.173Z,95358.97
2022-08-03T15:35:58.044Z,95353.31
2022-08-03T15:38:26.482Z,95356.00
2022-08-03T15:40:55.756Z,95360.09
2022-08-03T15:43:23.571Z,95365.47
2022-08-03T15:46:18.995Z,95360.38
2022-08-03T15:48:39.392Z,95360.91
2022-08-03T15:51:08.010Z,95353.59
2022-08-03T15:53:36.018Z,95354.41
2022-08-03T15:56:11.352Z,95352.00
2022-08-03T15:59:09.809Z,95354.69
2022-08-03T16:01:29.163Z,95354.44
2022-08-03T16:03:57.231Z,95350.38
2022-08-03T16:06:29.722Z,95352.31
2022-08-03T16:09:03.408Z,95348.81
2022-08-03T16:11:32.530Z,95350.19
2022-08-03T16:14:12.810Z,95349.38
2022-08-03T16:16:47.945Z,95346.97
2022-08-03T16:19:15.810Z,95349.91
2022-08-03T16:21:48.274Z,95359.38
2022-08-03T16:24:17.525Z,95355.31
2022-08-03T16:26:49.068Z,95351.28
2022-08-03T16:29:23.653Z,95345.34
2022-08-03T16:31:52.280Z,95354.53
2022-08-03T16:34:20.249Z,95352.63
2022-08-03T16:36:47.931Z,95350.75
2022-08-03T16:39:15.963Z,95350.72
2022-08-03T16:41:54.328Z,95344.28
2022-08-03T16:44:30.969Z,95348.00
2022-08-03T16:46:58.837Z,95354.47
2022-08-03T16:49:54.188Z,95344.22
2022-08-03T16:52:14.381Z,95349.34
2022-08-03T16:54:50.658Z,95348.81
2022-08-03T16:57:56.560Z,95350.66
2022-08-03T17:00:12.109Z,95343.38
2022-08-03T17:03:00.893Z,95341.22
2022-08-03T17:05:46.878Z,95344.41
2022-08-03T17:08:15.684Z,95343.03
2022-08-03T17:10:44.502Z,95348.88
2022-08-03T17:13:22.004Z,95348.81
2022-08-03T17:16:01.351Z,95345.59
2022-08-03T17:18:35.192Z,95354.94
2022-08-03T17:21:05.782Z,95352.75
2022-08-03T17:23:42.837Z,95354.34
2022-08-03T17:26:21.109Z,95355.56
2022-08-03T17:28:57.876Z,95348.69
2022-08-03T17:31:32.262Z,95364.22
2022-08-03T17:34:15.460Z,95347.22
2022-08-03T17:37:03.751Z,95358.88
2022-08-03T17:39:57.767Z,95359.28
2022-08-03T17:42:31.163Z,95362.38
2022-08-03T17:45:02.306Z,95363.09
2022-08-03T17:47:41.424Z,95359.00
2022-08-03T17:50:24.676Z,95359.69
2022-08-03T17:53:07.682Z,95362.38
2022-08-03T17:55:55.276Z,95365.44
2022-08-03T17:58:41.258Z,95376.31
2022-08-03T18:02:01.934Z,95376.75
2022-08-03T18:04:29.725Z,95382.78
2022-08-03T18:07:11.764Z,95391.03
2022-08-03T18:10:03.451Z,95391.72
2022-08-03T18:12:39.839Z,95392.91
2022-08-03T18:15:22.192Z,95393.91
2022-08-03T18:17:55.313Z,95394.66
2022-08-03T18:20:45.764Z,95397.25
2022-08-03T18:23:25.318Z,95396.63
2022-08-03T18:26:07.735Z,95401.84
2022-08-03T18:28:42.451Z,95401.59
2022-08-03T18:31:11.907Z,95399.34
2022-08-03T18:34:16.628Z,95403.56
2022-08-03T18:36:31.931Z,95406.72
2022-08-03T18:39:03.207Z,95403.03
2022-08-03T18:41:34.699Z,95402.47
2022-08-03T18:44:07.070Z,95411.97
2022-08-03T18:46:48.983Z,95409.44
2022-08-03T18:49:29.551Z,95408.06
2022-08-03T18:52:05.279Z,95411.94
2022-08-03T18:55:02.335Z,95410.72
2022-08-03T18:57:40.289Z,95412.81
2022-08-03T19:00:14.062Z,95418.56
2022-08-03T19:02:48.597Z,95417.66
2022-08-03T19:05:20.266Z,95412.41
2022-08-03T19:07:59.808Z,95413.16
2022-08-03T19:10:32.155Z,95416.56
2022-08-03T19:13:05.316Z,95411.34
2022-08-03T19:15:51.227Z,95421.13
2022-08-03T19:18:22.510Z,95417.56
2022-08-03T19:20:54.650Z,95415.81
2022-08-03T19:23:26.299Z,95428.03
2022-08-03T19:26:03.093Z,95417.59
2022-08-03T19:28:31.217Z,95423.63
2022-08-03T19:31:02.655Z,95422.56
2022-08-03T19:33:56.145Z,95431.34
2022-08-03T19:36:27.350Z,95427.44
2022-08-03T19:38:58.561Z,95427.59
2022-08-03T19:41:31.167Z,95430.03
2022-08-03T19:44:11.524Z,95424.09
2022-08-03T19:46:47.827Z,95427.25
2022-08-03T19:49:17.275Z,95427.25
2022-08-03T19:52:00.807Z,95426.09
2022-08-03T19:54:45.700Z,95426.09
2022-08-03T19:57:24.161Z,95432.63
2022-08-03T19:59:53.620Z,95434.38
2022-08-03T20:02:25.606Z,95433.69
2022-08-03T20:04:56.002Z,95426.03
2022-08-03T20:07:24.133Z,95427.75
2022-08-03T20:09:54.569Z,95425.22
2022-08-03T20:12:27.619Z,95422.28
2022-08-03T20:14:57.360Z,95426.69
2022-08-03T20:17:54.881Z,95427.63
2022-08-03T20:20:13.678Z,95429.94
2022-08-03T20:22:45.537Z,95422.53
2022-08-03T20:25:21.030Z,95429.03
2022-08-03T20:28:07.218Z,95433.09
2022-08-03T20:30:42.612Z,95431.47
2022-08-03T20:33:10.920Z,95418.69
2022-08-03T20:35:41.807Z,95432.75
2022-08-03T20:38:10.260Z,95424.97
2022-08-03T20:40:39.855Z,95424.59
2022-08-03T20:43:09.284Z,95433.34
2022-08-03T20:45:59.762Z,95425.22
2022-08-03T20:48:27.552Z,95425.06
2022-08-03T20:50:56.842Z,95427.16
2022-08-03T20:53:57.292Z,95427.53
2022-08-03T20:56:15.075Z,95425.34
2022-08-03T20:58:50.733Z,95432.88
2022-08-03T21:01:27.691Z,95428.59
2022-08-03T21:04:06.896Z,95426.34
2022-08-03T21:06:38.127Z,95429.78
2022-08-03T21:09:07.654Z,95421.19
2022-08-03T21:11:41.937Z,95427.56
2022-08-03T21:14:16.358Z,95426.06
2022-08-03T21:16:46.162Z,95415.31
2022-08-03T21:19:15.463Z,95423.31
2022-08-03T21:21:47.719Z,95422.75
2022-08-03T21:24:16.293Z,95418.59
2022-08-03T21:26:48.355Z,95416.94
2022-08-03T21:29:16.743Z,95416.31
2022-08-03T21:31:44.944Z,95412.72
2022-08-03T21:34:12.997Z,95415.69
2022-08-03T21:36:40.805Z,95415.53
2022-08-03T21:39:10.521Z,95417.19
2022-08-03T21:41:40.109Z,95420.56
2022-08-03T21:44:09.454Z,95411.47
2022-08-03T21:46:39.174Z,95414.59
2022-08-03T21:50:07.971Z,95409.72
2022-08-03T21:52:00.421Z,95409.72
2022-08-03T21:54:36.014Z,95414.81
2022-08-03T21:57:06.892Z,95417.00
2022-08-03T21:59:38.265Z,95410.38
2022-08-03T22:02:20.020Z,95414.00
2022-08-03T22:04:56.247Z,95407.13
2022-08-03T22:07:26.358Z,95406.06
2022-08-03T22:09:55.931Z,95410.53
2022-08-03T22:12:26.067Z,95407.63
2022-08-03T22:15:01.171Z,95412.47
2022-08-03T22:17:54.046Z,95405.59
2022-08-03T22:20:19.910Z,95409.41
2022-08-03T22:22:54.969Z,95411.69
2022-08-03T22:25:27.185Z,95411.34
2022-08-03T22:27:55.722Z,95411.78
2022-08-03T22:30:24.911Z,95406.06
2022-08-03T22:32:56.038Z,95408.25
2022-08-03T22:35:25.795Z,95405.41
2022-08-03T22:37:55.446Z,95406.91
2022-08-03T22:40:23.441Z,95401.19
2022-08-03T22:42:53.969Z,95408.03
2022-08-03T22:46:08.486Z,95412.56
2022-08-03T22:48:11.943Z,95406.84
2022-08-03T22:50:42.290Z,95410.56
2022-08-03T22:53:10.650Z,95406.84
2022-08-03T22:55:38.408Z,95403.25
2022-08-03T22:58:06.206Z,95407.81
2022-08-03T23:00:34.066Z,95401.53
2022-08-03T23:03:07.334Z,95403.00
2022-08-03T23:06:02.592Z,95407.31
2022-08-03T23:08:26.779Z,95404.41
2022-08-03T23:10:57.225Z,95409.31
2022-08-03T23:13:26.467Z,95410.56
2022-08-03T23:15:57.725Z,95405.16
2022-08-03T23:18:30.435Z,95413.16
2022-08-03T23:21:11.054Z,95409.59
2022-08-03T23:23:44.172Z,95406.66
2022-08-03T23:26:16.301Z,95407.31
2022-08-03T23:28:47.743Z,95401.81
2022-08-03T23:31:16.331Z,95406.81
2022-08-03T23:33:46.026Z,95406.22
2022-08-03T23:36:30.835Z,95408.44
2022-08-03T23:39:03.423Z,95405.03
2022-08-03T23:41:31.811Z,95409.78
2022-08-03T23:44:01.866Z,95400.38
2022-08-03T23:46:32.059Z,95400.06
2022-08-03T23:49:00.787Z,95403.47
2022-08-03T23:51:40.391Z,95398.78
2022-08-03T23:54:20.449Z,95400.63
2022-08-03T23:56:56.216Z,95402.72
2022-08-03T23:59:31.628Z,95392.59
